createdAt,value
2023-05-04T00:00:44.377Z,102433.47
2023-05-04T00:03:11.936Z,102437.88
2023-05-04T00:05:38.335Z,102429.22
2023-05-04T00:08:05.066Z,102424.03
2023-05-04T00:10:31.533Z,102428.47
2023-05-04T00:13:00.520Z,102432.00
2023-05-04T00:15:28.110Z,102428.59
2023-05-04T00:17:55.219Z,102420.88
2023-05-04T00:20:21.892Z,102419.16
2023-05-04T00:22:48.319Z,102413.13
2023-05-04T00:25:14.808Z,102416.63
2023-05-04T00:27:44.034Z,102408.84
2023-05-04T00:30:11.198Z,102403.66
2023-05-04T00:32:37.761Z,102413.19
2023-05-04T00:35:04.530Z,102402.84
2023-05-04T00:37:31.057Z,102396.88
2023-05-04T00:39:58.123Z,102398.69
2023-05-04T00:42:24.574Z,102393.56
2023-05-04T00:44:50.932Z,102398.75
2023-05-04T00:47:19.584Z,102388.38
2023-05-04T00:49:46.648Z,102387.53
2023-05-04T00:52:14.712Z,102387.59
2023-05-04T00:54:46.450Z,102386.75
2023-05-04T00:57:13.372Z,102381.63
2023-05-04T00:59:39.847Z,102380.69
2023-05-04T01:02:06.538Z,102385.00
2023-05-04T01:04:33.137Z,102381.63
2023-05-04T01:07:02.504Z,102383.31
2023-05-04T01:09:42.856Z,102380.88
2023-05-04T01:12:25.823Z,102369.59
2023-05-04T01:14:53.969Z,102363.63
2023-05-04T01:17:20.380Z,102366.25
2023-05-04T01:19:46.780Z,102370.53
2023-05-04T01:22:13.209Z,102369.66
2023-05-04T01:24:39.822Z,102365.41
2023-05-04T01:27:11.707Z,102365.34
2023-05-04T01:29:45.180Z,102368.84
2023-05-04T01:32:14.896Z,102369.69
2023-05-04T01:34:41.882Z,102372.25
2023-05-04T01:37:08.860Z,102360.22
2023-05-04T01:39:35.329Z,102364.53
2023-05-04T01:42:02.227Z,102366.34
2023-05-04T01:44:28.814Z,102367.22
2023-05-04T01:46:55.365Z,102367.25
2023-05-04T01:49:22.066Z,102369.09
2023-05-04T01:51:49.459Z,102366.44
2023-05-04T01:54:15.997Z,102362.22
2023-05-04T01:56:42.594Z,102362.22
2023-05-04T01:59:09.160Z,102363.06
2023-05-04T02:01:36.573Z,102360.47
2023-05-04T02:04:03.385Z,102357.91
2023-05-04T02:06:30.110Z,102351.03
2023-05-04T02:08:56.543Z,102352.81
2023-05-04T02:11:23.186Z,102345.94
2023-05-04T02:13:49.696Z,102345.94
2023-05-04T02:16:16.188Z,102347.69
2023-05-04T02:18:42.654Z,102345.13
2023-05-04T02:21:09.061Z,102339.06
2023-05-04T02:23:35.570Z,102342.53
2023-05-04T02:26:02.507Z,102343.34
2023-05-04T02:28:28.993Z,102335.59
2023-05-04T02:30:55.415Z,102329.56
2023-05-04T02:33:21.874Z,102333.97
2023-05-04T02:35:48.513Z,102333.97
2023-05-04T02:38:14.963Z,102327.09
2023-05-04T02:40:41.480Z,102325.44
2023-05-04T02:43:08.070Z,102326.31
2023-05-04T02:45:35.060Z,102325.47
2023-05-04T02:48:01.749Z,102326.28
2023-05-04T02:50:28.276Z,102317.69
2023-05-04T02:52:54.784Z,102317.75
2023-05-04T02:55:21.176Z,102311.75
2023-05-04T02:57:47.629Z,102311.84
2023-05-04T03:00:14.340Z,102304.03
2023-05-04T03:02:41.037Z,102311.88
2023-05-04T03:05:07.873Z,102308.50
2023-05-04T03:07:34.362Z,102316.28
2023-05-04T03:10:01.066Z,102315.50
2023-05-04T03:12:27.616Z,102315.50
2023-05-04T03:14:54.006Z,102312.94
2023-05-04T03:17:20.483Z,102312.16
2023-05-04T03:19:47.153Z,102305.25
2023-05-04T03:22:13.564Z,102297.53
2023-05-04T03:24:40.111Z,102305.28
2023-05-04T03:27:06.673Z,102302.66
2023-05-04T03:29:33.243Z,102297.47
2023-05-04T03:31:59.755Z,102300.03
2023-05-04T03:34:26.331Z,102287.09
2023-05-04T03:36:53.235Z,102294.03
2023-05-04T03:39:19.657Z,102289.78
2023-05-04T03:41:46.074Z,102286.38
2023-05-04T03:44:12.517Z,102286.47
2023-05-04T03:46:39.018Z,102286.44
2023-05-04T03:49:05.526Z,102276.91
2023-05-04T03:51:31.989Z,102291.59
2023-05-04T03:53:58.367Z,102281.22
2023-05-04T03:56:24.886Z,102273.53
2023-05-04T03:58:51.289Z,102277.00
2023-05-04T04:01:17.722Z,102281.34
2023-05-04T04:03:44.226Z,102276.22
2023-05-04T04:06:11.361Z,102270.22
2023-05-04T04:08:37.945Z,102269.44
2023-05-04T04:11:04.435Z,102272.94
2023-05-04T04:13:30.813Z,102270.38
2023-05-04T04:15:57.282Z,102272.91
2023-05-04T04:18:24.339Z,102268.53
2023-05-04T04:20:51.180Z,102269.38
2023-05-04T04:23:20.374Z,102269.44
2023-05-04T04:25:46.928Z,102263.34
2023-05-04T04:28:14.068Z,102274.56
2023-05-04T04:30:40.925Z,102266.78
2023-05-04T04:33:07.669Z,102263.28
2023-05-04T04:35:34.172Z,102267.59
2023-05-04T04:38:03.371Z,102265.84
2023-05-04T04:40:30.278Z,102265.81
2023-05-04T04:42:56.769Z,102265.78
2023-05-04T04:45:23.512Z,102271.78
2023-05-04T04:47:50.025Z,102269.22
2023-05-04T04:50:16.565Z,102264.03
2023-05-04T04:52:42.996Z,102261.34
2023-05-04T04:55:09.872Z,102267.41
2023-05-04T04:57:36.498Z,102261.28
2023-05-04T05:00:07.790Z,102262.97
2023-05-04T05:02:34.398Z,102270.69
2023-05-04T05:05:01.007Z,102267.19
2023-05-04T05:07:27.497Z,102260.25
2023-05-04T05:09:53.918Z,102259.28
2023-05-04T05:12:20.451Z,102260.06
2023-05-04T05:14:47.259Z,102258.34
2023-05-04T05:17:13.820Z,102256.56
2023-05-04T05:19:42.198Z,102253.91
2023-05-04T05:22:09.316Z,102259.00
2023-05-04T05:24:35.768Z,102253.78
2023-05-04T05:27:02.478Z,102248.56
2023-05-04T05:29:29.000Z,102248.41
2023-05-04T05:31:55.694Z,102258.63
2023-05-04T05:34:22.055Z,102246.38
2023-05-04T05:36:49.313Z,102256.66
2023-05-04T05:39:16.288Z,102245.34
2023-05-04T05:41:43.264Z,102244.44
2023-05-04T05:44:11.741Z,102247.03
2023-05-04T05:46:39.559Z,102240.97
2023-05-04T05:49:07.283Z,102235.63
2023-05-04T05:51:33.797Z,102240.75
2023-05-04T05:54:00.443Z,102242.38
2023-05-04T05:56:26.832Z,102239.59
2023-05-04T05:58:53.331Z,102237.75
2023-05-04T06:01:20.096Z,102234.19
2023-05-04T06:03:46.882Z,102239.34
2023-05-04T06:06:13.627Z,102229.66
2023-05-04T06:08:39.963Z,102226.72
2023-05-04T06:11:06.487Z,102230.72
2023-05-04T06:13:32.964Z,102230.44
2023-05-04T06:15:59.498Z,102228.41
2023-05-04T06:18:25.947Z,102222.69
2023-05-04T06:20:58.900Z,102225.78
2023-05-04T06:23:26.280Z,102223.03
2023-05-04T06:25:52.654Z,102224.81
2023-05-04T06:28:19.071Z,102221.44
2023-05-04T06:30:45.646Z,102222.38
2023-05-04T06:33:12.289Z,102211.03
2023-05-04T06:35:38.765Z,102216.81
2023-05-04T06:38:05.149Z,102209.78
2023-05-04T06:40:31.719Z,102210.31
2023-05-04T06:42:58.135Z,102217.09
2023-05-04T06:45:24.584Z,102206.56
2023-05-04T06:47:52.383Z,102200.47
2023-05-04T06:50:18.824Z,102201.91
2023-05-04T06:52:46.453Z,102201.53
2023-05-04T06:55:13.875Z,102201.94
2023-05-04T06:57:40.700Z,102203.25
2023-05-04T07:00:08.315Z,102196.19
2023-05-04T07:02:34.821Z,102189.06
2023-05-04T07:05:02.138Z,102182.00
2023-05-04T07:07:28.572Z,102185.22
2023-05-04T07:09:55.123Z,102184.09
2023-05-04T07:12:25.651Z,102188.06
2023-05-04T07:14:52.318Z,102173.13
2023-05-04T07:17:21.663Z,102170.19
2023-05-04T07:19:52.215Z,102174.19
2023-05-04T07:22:19.159Z,102178.84
2023-05-04T07:24:45.568Z,102168.53
2023-05-04T07:27:12.083Z,102162.66
2023-05-04T07:29:38.598Z,102160.97
2023-05-04T07:32:05.423Z,102160.53
2023-05-04T07:34:42.299Z,102163.34
2023-05-04T07:37:12.526Z,102154.88
2023-05-04T07:39:38.994Z,102153.63
2023-05-04T07:42:06.048Z,102156.47
2023-05-04T07:44:32.605Z,102153.00
2023-05-04T07:46:59.918Z,102164.81
2023-05-04T07:49:26.794Z,102158.06
2023-05-04T07:51:53.889Z,102166.53
2023-05-04T07:54:22.644Z,102157.25
2023-05-04T07:56:49.548Z,102155.88
2023-05-04T07:59:19.122Z,102150.78
2023-05-04T08:01:46.343Z,102146.03
2023-05-04T08:04:12.955Z,102137.78
2023-05-04T08:06:39.768Z,102138.81
2023-05-04T08:09:06.594Z,102124.94
2023-05-04T08:11:34.609Z,102134.06
2023-05-04T08:14:01.351Z,102132.09
2023-05-04T08:16:30.436Z,102125.63
2023-05-04T08:18:57.205Z,102129.75
2023-05-04T08:21:23.632Z,102124.53
2023-05-04T08:23:50.015Z,102117.44
2023-05-04T08:26:16.704Z,102119.00
2023-05-04T08:28:45.552Z,102117.09
2023-05-04T08:31:13.096Z,102108.50
2023-05-04T08:33:39.623Z,102107.69
2023-05-04T08:36:07.711Z,102100.28
2023-05-04T08:38:34.200Z,102096.75
2023-05-04T08:41:04.709Z,102094.13
2023-05-04T08:43:38.250Z,102078.56
2023-05-04T08:46:06.578Z,102082.97
2023-05-04T08:48:35.959Z,102088.56
2023-05-04T08:51:02.913Z,102085.19
2023-05-04T08:53:30.079Z,102077.44
2023-05-04T08:55:59.034Z,102068.59
2023-05-04T08:58:27.066Z,102068.09
2023-05-04T09:00:53.931Z,102063.53
2023-05-04T09:03:21.372Z,102069.28
2023-05-04T09:05:50.716Z,102065.50
2023-05-04T09:08:18.488Z,102063.38
2023-05-04T09:10:45.321Z,102061.34
2023-05-04T09:13:12.163Z,102067.09
2023-05-04T09:15:38.579Z,102059.38
2023-05-04T09:18:07.266Z,102060.53
2023-05-04T09:20:47.863Z,102048.25
2023-05-04T09:23:16.130Z,102045.50
2023-05-04T09:25:49.579Z,102040.38
2023-05-04T09:28:17.374Z,102039.66
2023-05-04T09:30:44.887Z,102041.19
2023-05-04T09:33:11.598Z,102041.13
2023-05-04T09:35:42.864Z,102037.44
2023-05-04T09:38:09.558Z,102035.84
2023-05-04T09:40:38.775Z,102029.66
2023-05-04T09:43:06.555Z,102037.09
2023-05-04T09:45:44.517Z,102027.06
2023-05-04T09:48:28.988Z,102027.03
2023-05-04T09:51:00.899Z,102017.75
2023-05-04T09:53:29.046Z,102019.81
2023-05-04T09:56:29.352Z,102015.03
2023-05-04T09:58:59.329Z,102011.47
2023-05-04T10:01:32.010Z,102007.50
2023-05-04T10:03:58.848Z,102002.06
2023-05-04T10:06:31.332Z,101995.88
2023-05-04T10:08:59.395Z,101992.59
2023-05-04T10:11:26.468Z,101989.19
2023-05-04T10:13:55.855Z,101979.69
2023-05-04T10:16:40.922Z,101984.63
2023-05-04T10:19:26.099Z,101984.31
2023-05-04T10:22:12.789Z,101977.75
2023-05-04T10:25:04.522Z,101974.97
2023-05-04T10:27:41.685Z,101969.78
2023-05-04T10:30:10.850Z,101959.78
2023-05-04T10:32:39.865Z,101953.84
2023-05-04T10:35:07.691Z,101956.88
2023-05-04T10:37:36.130Z,101953.19
2023-05-04T10:40:02.574Z,101948.38
2023-05-04T10:42:29.010Z,101934.28
2023-05-04T10:44:56.761Z,101930.09
2023-05-04T10:47:32.411Z,101930.97
2023-05-04T10:50:07.864Z,101934.66
2023-05-04T10:52:47.273Z,101929.59
2023-05-04T10:55:14.785Z,101927.97
2023-05-04T10:57:49.504Z,101915.25
2023-05-04T11:00:16.674Z,101910.28
2023-05-04T11:02:43.684Z,101907.22
2023-05-04T11:05:17.391Z,101908.34
2023-05-04T11:07:44.550Z,101903.31
2023-05-04T11:10:31.287Z,101892.84
2023-05-04T11:13:05.565Z,101885.38
2023-05-04T11:15:32.834Z,101883.31
2023-05-04T11:17:59.315Z,101879.25
2023-05-04T11:20:26.868Z,101875.50
2023-05-04T11:22:54.041Z,101869.19
2023-05-04T11:25:27.367Z,101868.97
2023-05-04T11:27:54.014Z,101869.72
2023-05-04T11:30:21.474Z,101860.78
2023-05-04T11:32:47.938Z,101862.50
2023-05-04T11:35:19.449Z,101852.88
2023-05-04T11:37:47.250Z,101842.63
2023-05-04T11:40:33.287Z,101840.03
2023-05-04T11:43:00.318Z,101839.66
2023-05-04T11:45:35.019Z,101831.66
2023-05-04T11:48:02.076Z,101832.84
2023-05-04T11:50:29.427Z,101824.94
2023-05-04T11:53:08.958Z,101820.56
2023-05-04T11:55:37.393Z,101817.09
2023-05-04T11:58:08.976Z,101817.97
2023-05-04T12:00:40.686Z,101819.75
2023-05-04T12:03:09.160Z,101828.19
2023-05-04T12:05:36.520Z,101820.09
2023-05-04T12:08:04.352Z,101825.25
2023-05-04T12:10:33.437Z,101817.97
2023-05-04T12:13:00.032Z,101826.16
2023-05-04T12:15:34.351Z,101822.66
2023-05-04T12:18:02.676Z,101815.53
2023-05-04T12:20:30.333Z,101815.81
2023-05-04T12:22:58.158Z,101810.13
2023-05-04T12:25:24.956Z,101808.94
2023-05-04T12:27:51.710Z,101801.09
2023-05-04T12:30:18.411Z,101806.16
2023-05-04T12:32:45.073Z,101816.59
2023-05-04T12:35:11.598Z,101802.19
2023-05-04T12:37:38.221Z,101800.97
2023-05-04T12:40:17.345Z,101785.75
2023-05-04T12:42:53.264Z,101782.44
2023-05-04T12:45:22.408Z,101784.00
2023-05-04T12:47:48.868Z,101768.13
2023-05-04T12:50:15.327Z,101769.63
2023-05-04T12:52:41.910Z,101764.44
2023-05-04T12:55:08.593Z,101754.28
2023-05-04T12:57:35.097Z,101758.13
2023-05-04T13:00:01.541Z,101752.22
2023-05-04T13:02:27.958Z,101751.19
2023-05-04T13:04:54.408Z,101742.31
2023-05-04T13:07:20.930Z,101740.78
2023-05-04T13:09:47.378Z,101735.41
2023-05-04T13:12:13.775Z,101743.63
2023-05-04T13:14:40.261Z,101738.38
2023-05-04T13:17:06.767Z,101729.13
2023-05-04T13:19:33.215Z,101717.69
2023-05-04T13:21:59.681Z,101722.34
2023-05-04T13:24:26.260Z,101724.41
2023-05-04T13:26:52.643Z,101718.41
2023-05-04T13:29:19.097Z,101707.09
2023-05-04T13:31:45.515Z,101711.28
2023-05-04T13:34:12.095Z,101704.22
2023-05-04T13:36:38.607Z,101692.38
2023-05-04T13:39:05.029Z,101688.00
2023-05-04T13:41:31.619Z,101691.88
2023-05-04T13:43:58.082Z,101683.09
2023-05-04T13:46:24.584Z,101677.66
2023-05-04T13:48:51.145Z,101676.41
2023-05-04T13:51:18.760Z,101673.50
2023-05-04T13:53:45.182Z,101663.22
2023-05-04T13:56:12.022Z,101660.16
2023-05-04T13:58:38.431Z,101656.31
2023-05-04T14:01:04.883Z,101648.56
2023-05-04T14:03:31.937Z,101647.31
2023-05-04T14:05:58.740Z,101648.97
2023-05-04T14:08:25.785Z,101652.69
2023-05-04T14:10:52.184Z,101642.72
2023-05-04T14:13:18.681Z,101632.81
2023-05-04T14:15:45.288Z,101631.72
2023-05-04T14:18:11.845Z,101621.44
2023-05-04T14:20:38.370Z,101621.09
2023-05-04T14:23:04.829Z,101613.97
2023-05-04T14:25:31.303Z,101610.41
2023-05-04T14:27:57.783Z,101604.69
2023-05-04T14:30:24.364Z,101610.53
2023-05-04T14:32:55.282Z,101606.47
2023-05-04T14:35:21.824Z,101608.16
2023-05-04T14:37:51.348Z,101603.44
2023-05-04T14:40:17.780Z,101598.66
2023-05-04T14:42:44.209Z,101590.59
2023-05-04T14:45:11.534Z,101586.47
2023-05-04T14:47:38.059Z,101585.91
2023-05-04T14:50:06.302Z,101591.81
2023-05-04T14:52:32.998Z,101589.16
2023-05-04T14:54:59.628Z,101592.22
2023-05-04T14:57:26.071Z,101594.69
2023-05-04T14:59:52.546Z,101589.31
2023-05-04T15:02:19.146Z,101584.94
2023-05-04T15:04:46.805Z,101575.34
2023-05-04T15:07:15.865Z,101575.91
2023-05-04T15:09:42.324Z,101574.28
2023-05-04T15:12:09.605Z,101560.63
2023-05-04T15:14:36.674Z,101563.47
2023-05-04T15:17:04.015Z,101570.28
2023-05-04T15:19:30.695Z,101566.66
2023-05-04T15:21:57.152Z,101559.00
2023-05-04T15:24:23.614Z,101556.91
2023-05-04T15:26:50.108Z,101556.34
2023-05-04T15:29:16.552Z,101558.19
2023-05-04T15:31:43.013Z,101551.47
2023-05-04T15:34:09.626Z,101559.56
2023-05-04T15:36:36.040Z,101557.63
2023-05-04T15:39:05.299Z,101558.72
2023-05-04T15:41:34.518Z,101554.66
2023-05-04T15:44:01.991Z,101555.78
2023-05-04T15:46:28.612Z,101545.19
2023-05-04T15:48:55.196Z,101549.56
2023-05-04T15:51:21.657Z,101544.59
2023-05-04T15:53:48.096Z,101540.66
2023-05-04T15:56:15.374Z,101537.28
2023-05-04T15:58:41.847Z,101538.31
2023-05-04T16:01:10.021Z,101538.44
2023-05-04T16:03:37.855Z,101538.97
2023-05-04T16:06:05.564Z,101529.78
2023-05-04T16:08:32.228Z,101523.41
2023-05-04T16:10:58.657Z,101522.56
2023-05-04T16:13:25.161Z,101523.28
2023-05-04T16:15:51.756Z,101518.22
2023-05-04T16:18:18.598Z,101510.56
2023-05-04T16:20:45.974Z,101507.47
2023-05-04T16:23:17.554Z,101500.50
2023-05-04T16:25:44.301Z,101498.03
2023-05-04T16:28:11.083Z,101501.94
2023-05-04T16:30:37.722Z,101495.53
2023-05-04T16:33:04.651Z,101497.09
2023-05-04T16:35:31.836Z,101498.50
2023-05-04T16:37:58.665Z,101495.84
2023-05-04T16:40:25.367Z,101492.19
2023-05-04T16:42:51.815Z,101486.88
2023-05-04T16:45:18.304Z,101480.72
2023-05-04T16:47:44.769Z,101492.31
2023-05-04T16:50:12.831Z,101484.78
2023-05-04T16:52:39.836Z,101481.66
2023-05-04T16:55:09.234Z,101495.31
2023-05-04T16:57:37.971Z,101476.59
2023-05-04T17:00:05.703Z,101480.88
2023-05-04T17:02:32.750Z,101480.09
2023-05-04T17:04:59.212Z,101471.13
2023-05-04T17:07:25.636Z,101469.00
2023-05-04T17:09:52.034Z,101462.44
2023-05-04T17:12:18.546Z,101473.88
2023-05-04T17:14:47.595Z,101472.19
2023-05-04T17:17:14.091Z,101478.19
2023-05-04T17:19:41.274Z,101482.34
2023-05-04T17:22:08.662Z,101467.38
2023-05-04T17:24:35.036Z,101474.53
2023-05-04T17:27:01.493Z,101480.47
2023-05-04T17:29:27.939Z,101478.34
2023-05-04T17:31:54.429Z,101483.16
2023-05-04T17:34:20.968Z,101486.47
2023-05-04T17:36:47.497Z,101491.03
2023-05-04T17:39:13.937Z,101488.63
2023-05-04T17:41:40.865Z,101488.38
2023-05-04T17:44:07.357Z,101482.50
2023-05-04T17:46:34.632Z,101491.50
2023-05-04T17:49:01.159Z,101489.75
2023-05-04T17:51:27.627Z,101494.44
2023-05-04T17:53:54.106Z,101490.38
2023-05-04T17:56:21.842Z,101496.63
2023-05-04T17:58:48.287Z,101498.78
2023-05-04T18:01:16.394Z,101499.06
2023-05-04T18:03:43.087Z,101491.63
2023-05-04T18:06:09.741Z,101488.16
2023-05-04T18:08:36.225Z,101495.13
2023-05-04T18:11:02.626Z,101490.59
2023-05-04T18:13:29.021Z,101501.06
2023-05-04T18:15:55.628Z,101500.44
2023-05-04T18:18:22.107Z,101501.16
2023-05-04T18:20:48.582Z,101500.78
2023-05-04T18:23:15.036Z,101505.94
2023-05-04T18:25:41.531Z,101519.13
2023-05-04T18:28:08.203Z,101511.81
2023-05-04T18:30:34.723Z,101514.56
2023-05-04T18:33:01.260Z,101515.03
2023-05-04T18:35:28.006Z,101523.28
2023-05-04T18:37:54.542Z,101524.59
2023-05-04T18:40:20.970Z,101526.75
2023-05-04T18:42:47.407Z,101526.25
2023-05-04T18:45:14.075Z,101526.00
2023-05-04T18:47:40.658Z,101519.28
2023-05-04T18:50:08.084Z,101528.47
2023-05-04T18:52:34.928Z,101525.44
2023-05-04T18:55:01.463Z,101523.22
2023-05-04T18:57:30.053Z,101523.69
2023-05-04T18:59:56.578Z,101524.28
2023-05-04T19:02:23.105Z,101523.16
2023-05-04T19:04:49.766Z,101519.06
2023-05-04T19:07:17.055Z,101520.09
2023-05-04T19:09:45.936Z,101522.22
2023-05-04T19:12:12.531Z,101517.66
2023-05-04T19:14:39.688Z,101520.81
2023-05-04T19:17:06.183Z,101512.72
2023-05-04T19:19:36.346Z,101510.41
2023-05-04T19:22:02.969Z,101506.88
2023-05-04T19:24:29.902Z,101512.59
2023-05-04T19:26:56.351Z,101517.50
2023-05-04T19:29:22.755Z,101510.78
2023-05-04T19:31:49.223Z,101520.66
2023-05-04T19:34:17.578Z,101525.31
2023-05-04T19:36:44.216Z,101515.31
2023-05-04T19:39:10.603Z,101528.72
2023-05-04T19:41:37.132Z,101520.38
2023-05-04T19:44:07.845Z,101516.28
2023-05-04T19:46:34.368Z,101513.13
2023-05-04T19:49:00.849Z,101515.56
2023-05-04T19:51:28.039Z,101519.34
2023-05-04T19:53:54.543Z,101512.78
2023-05-04T19:56:21.278Z,101513.22
2023-05-04T19:58:47.797Z,101512.69
2023-05-04T20:01:14.505Z,101504.28
2023-05-04T20:03:41.185Z,101512.28
2023-05-04T20:06:07.994Z,101508.34
2023-05-04T20:08:34.754Z,101511.19
2023-05-04T20:11:01.189Z,101510.47
2023-05-04T20:13:27.689Z,101506.56
2023-05-04T20:15:54.170Z,101505.28
2023-05-04T20:18:20.639Z,101506.72
2023-05-04T20:20:47.079Z,101504.28
2023-05-04T20:23:13.458Z,101500.06
2023-05-04T20:25:39.905Z,101495.66
2023-05-04T20:28:06.736Z,101492.38
2023-05-04T20:30:33.349Z,101494.47
2023-05-04T20:32:59.796Z,101490.16
2023-05-04T20:35:26.261Z,101490.47
2023-05-04T20:37:52.780Z,101484.69
2023-05-04T20:40:19.658Z,101484.84
2023-05-04T20:42:46.358Z,101479.91
2023-05-04T20:45:13.293Z,101475.13
2023-05-04T20:47:39.852Z,101475.25
2023-05-04T20:50:08.126Z,101476.00
2023-05-04T20:52:34.664Z,101470.28
2023-05-04T20:55:01.408Z,101465.25
2023-05-04T20:57:27.977Z,101459.34
2023-05-04T20:59:54.586Z,101465.94
2023-05-04T21:02:21.426Z,101457.22
2023-05-04T21:04:48.493Z,101452.06
2023-05-04T21:07:14.991Z,101452.97
2023-05-04T21:09:41.707Z,101452.16
2023-05-04T21:12:08.149Z,101447.84
2023-05-04T21:14:34.600Z,101448.69
2023-05-04T21:17:01.050Z,101441.66
2023-05-04T21:19:27.613Z,101445.00
2023-05-04T21:21:54.054Z,101439.69
2023-05-04T21:24:21.060Z,101440.31
2023-05-04T21:26:48.515Z,101440.41
2023-05-04T21:29:15.316Z,101436.41
2023-05-04T21:31:42.096Z,101434.81
2023-05-04T21:34:08.737Z,101433.25
2023-05-04T21:36:35.392Z,101430.03
2023-05-04T21:39:02.081Z,101423.31
2023-05-04T21:41:28.477Z,101427.19
2023-05-04T21:43:54.922Z,101421.38
2023-05-04T21:46:21.863Z,101425.78
2023-05-04T21:48:48.611Z,101420.00
2023-05-04T21:51:15.065Z,101420.38
2023-05-04T21:53:44.748Z,101421.22
2023-05-04T21:56:11.944Z,101421.50
2023-05-04T21:58:42.989Z,101421.50
2023-05-04T22:01:14.499Z,101421.50
2023-05-04T22:03:41.011Z,101418.22
2023-05-04T22:06:07.564Z,101417.56
2023-05-04T22:08:34.198Z,101414.94
2023-05-04T22:11:01.183Z,101413.31
2023-05-04T22:13:27.921Z,101410.25
2023-05-04T22:15:54.389Z,101411.09
2023-05-04T22:18:21.297Z,101409.22
2023-05-04T22:20:48.458Z,101399.66
2023-05-04T22:23:15.061Z,101404.72
2023-05-04T22:25:41.717Z,101404.84
2023-05-04T22:28:08.214Z,101400.50
2023-05-04T22:30:34.808Z,101408.59
2023-05-04T22:33:01.388Z,101417.50
2023-05-04T22:35:28.003Z,101415.88
2023-05-04T22:37:54.492Z,101409.72
2023-05-04T22:40:21.147Z,101411.78
2023-05-04T22:42:47.690Z,101402.50
2023-05-04T22:45:15.024Z,101401.84
2023-05-04T22:47:42.488Z,101403.16
2023-05-04T22:50:10.491Z,101398.22
2023-05-04T22:52:37.772Z,101394.00
2023-05-04T22:55:05.769Z,101392.50
2023-05-04T22:57:32.331Z,101399.78
2023-05-04T22:59:58.797Z,101404.47
2023-05-04T23:02:25.308Z,101405.00
2023-05-04T23:04:53.044Z,101401.91
2023-05-04T23:07:19.515Z,101402.78
2023-05-04T23:09:46.890Z,101414.25
2023-05-04T23:12:13.684Z,101415.56
2023-05-04T23:14:40.163Z,101413.13
2023-05-04T23:17:06.656Z,101418.38
2023-05-04T23:19:33.522Z,101401.31
2023-05-04T23:22:00.081Z,101402.13
2023-05-04T23:24:26.676Z,101418.53
2023-05-04T23:26:53.148Z,101427.22
2023-05-04T23:29:19.948Z,101429.84
2023-05-04T23:31:46.451Z,101436.94
2023-05-04T23:34:13.536Z,101437.97
2023-05-04T23:36:40.179Z,101434.44
2023-05-04T23:39:06.780Z,101435.63
2023-05-04T23:41:33.343Z,101434.69
2023-05-04T23:44:00.244Z,101441.31
2023-05-04T23:46:26.680Z,101431.09
2023-05-04T23:48:53.107Z,101440.81
2023-05-04T23:51:19.718Z,101438.63
2023-05-04T23:53:46.154Z,101439.56
2023-05-04T23:56:14.329Z,101433.31
2023-05-04T23:58:41.670Z,101435.16
